KSYR/SYR METAR and TAF weather

Enter ICAO airport designator
Station Type Date Time Source
KSYR METAR 2021/09/27 06:54 UTC NOAA

KSYR 270654Z 16003KT 10SM BKN060 OVC085 16/11 A2988 RMK AO2 RAB20E32 SLP114 P0000 T01610111


Station Type Date Time Source
KSYR Decoded METAR 2021/09/27 06:54 UTC NOAA

SYRACUSE HANCOCK INTERNATIONAL AIRPORT , NY, United States (KSYR) 43-07N 76-06W 127M
Sep 27, 2021 - 02:54 AM EDT / 2021.09.27 0654 UTC
Wind: from the SSE (160 degrees) at 3 MPH (3 KT):0
Visibility: 10 mile(s):0
Sky conditions: overcast
Precipitation last hour: A trace
Temperature: 61.0 F (16.1 C)
Dew Point: 52.0 F (11.1 C)
Relative Humidity: 72%
Pressure (altimeter): 29.88 in. Hg (1011 hPa)
ob: KSYR 270654Z 16003KT 10SM BKN060 OVC085 16/11 A2988 RMK AO2 RAB20E32 SLP114 P0000 T01610111
cycle: 7

Station Type Date Time Source
KSYR TAF 2021/09/27 06:42 UTC NOAA

TAF KSYR 270540Z 2706/2806 19005KT P6SM VCSH OVC090
FM270800 23007KT 6SM -SHRA OVC050
FM271700 21010G18KT P6SM OVC060
FM280300 25005KT P6SM OVC030

Example: see airport list